createdAt,value
2023-04-16T00:00:09.902Z,94.81
2023-04-16T00:02:41.341Z,94.65
2023-04-16T00:05:10.277Z,94.62
2023-04-16T00:07:38.409Z,94.70
2023-04-16T00:10:07.732Z,94.82
2023-04-16T00:12:36.516Z,94.60
2023-04-16T00:15:04.965Z,94.69
2023-04-16T00:17:34.465Z,94.76
2023-04-16T00:20:02.547Z,94.67
2023-04-16T00:22:30.656Z,94.64
2023-04-16T00:24:58.751Z,94.61
2023-04-16T00:27:26.863Z,94.74
2023-04-16T00:29:54.925Z,94.80
2023-04-16T00:32:23.030Z,94.77
2023-04-16T00:34:54.213Z,94.83
2023-04-16T00:37:22.473Z,94.96
2023-04-16T00:39:51.248Z,94.70
2023-04-16T00:42:19.465Z,94.79
2023-04-16T00:44:47.608Z,94.79
2023-04-16T00:47:16.051Z,94.66
2023-04-16T00:49:44.414Z,94.76
2023-04-16T00:52:13.983Z,94.65
2023-04-16T00:54:42.269Z,95.10
2023-04-16T00:57:11.121Z,95.28
2023-04-16T00:59:39.186Z,95.24
2023-04-16T01:02:08.360Z,95.28
2023-04-16T01:04:36.799Z,95.45
2023-04-16T01:07:04.945Z,95.63
2023-04-16T01:09:34.580Z,95.31
2023-04-16T01:12:04.427Z,95.52
2023-04-16T01:14:36.274Z,95.42
2023-04-16T01:17:04.456Z,95.49
2023-04-16T01:19:32.808Z,95.58
2023-04-16T01:22:02.542Z,95.57
2023-04-16T01:24:30.834Z,95.54
2023-04-16T01:26:59.439Z,95.62
2023-04-16T01:29:27.822Z,95.59
2023-04-16T01:31:58.472Z,95.84
2023-04-16T01:34:28.899Z,95.67
2023-04-16T01:36:56.981Z,95.75
2023-04-16T01:39:26.424Z,95.86
2023-04-16T01:41:54.256Z,96.00
2023-04-16T01:44:23.281Z,95.88
2023-04-16T01:46:51.395Z,95.84
2023-04-16T01:49:19.591Z,95.79
2023-04-16T01:51:47.850Z,95.90
2023-04-16T01:54:16.074Z,96.04
2023-04-16T01:56:46.207Z,95.87
2023-04-16T01:59:14.350Z,95.74
2023-04-16T02:01:43.580Z,95.68
2023-04-16T02:04:12.890Z,95.91
2023-04-16T02:06:41.199Z,95.86
2023-04-16T02:09:09.765Z,96.03
2023-04-16T02:11:39.238Z,96.14
2023-04-16T02:14:09.884Z,96.06
2023-04-16T02:16:37.996Z,96.09
2023-04-16T02:19:27.670Z,96.00
2023-04-16T02:21:56.114Z,96.00
2023-04-16T02:24:24.159Z,95.84
2023-04-16T02:26:52.367Z,96.03
2023-04-16T02:29:22.661Z,95.78
2023-04-16T02:31:57.772Z,95.96
2023-04-16T02:34:26.054Z,96.06
2023-04-16T02:36:55.196Z,96.00
2023-04-16T02:39:23.413Z,95.80
2023-04-16T02:41:52.497Z,95.94
2023-04-16T02:44:22.726Z,95.94
2023-04-16T02:46:50.973Z,95.81
2023-04-16T02:49:19.131Z,95.74
2023-04-16T02:51:47.183Z,95.99
2023-04-16T02:54:15.648Z,96.14
2023-04-16T02:56:44.417Z,96.12
2023-04-16T02:59:12.525Z,96.14
2023-04-16T03:01:42.138Z,96.22
2023-04-16T03:04:10.632Z,96.27
2023-04-16T03:06:41.236Z,96.42
2023-04-16T03:09:09.470Z,96.30
2023-04-16T03:11:37.995Z,96.39
2023-04-16T03:14:06.570Z,96.61
2023-04-16T03:16:34.649Z,96.70
2023-04-16T03:19:04.163Z,96.85
2023-04-16T03:21:32.557Z,96.82
2023-04-16T03:24:00.691Z,96.94
2023-04-16T03:26:28.875Z,97.09
2023-04-16T03:28:57.072Z,97.10
2023-04-16T03:31:25.686Z,97.10
2023-04-16T03:33:55.219Z,97.28
2023-04-16T03:36:25.476Z,97.29
2023-04-16T03:38:53.770Z,97.33
2023-04-16T03:41:22.037Z,97.48
2023-04-16T03:43:50.143Z,97.36
2023-04-16T03:46:18.179Z,97.31
2023-04-16T03:48:47.079Z,97.32
2023-04-16T03:51:15.460Z,97.41
2023-04-16T03:53:45.111Z,97.34
2023-04-16T03:56:14.955Z,97.36
2023-04-16T03:58:44.314Z,97.35
2023-04-16T04:01:12.204Z,97.32
2023-04-16T04:03:40.696Z,97.18
2023-04-16T04:06:09.574Z,97.31
2023-04-16T04:08:38.175Z,97.30
2023-04-16T04:11:08.881Z,97.23
2023-04-16T04:13:37.766Z,97.25
2023-04-16T04:16:06.869Z,97.41
2023-04-16T04:18:35.033Z,97.60
2023-04-16T04:21:07.252Z,97.58
2023-04-16T04:23:35.815Z,97.55
2023-04-16T04:26:07.459Z,97.57
2023-04-16T04:28:37.278Z,97.54
2023-04-16T04:31:06.345Z,97.59
2023-04-16T04:33:34.841Z,97.50
2023-04-16T04:36:03.362Z,97.52
2023-04-16T04:38:33.249Z,97.36
2023-04-16T04:41:01.704Z,97.39
2023-04-16T04:43:34.346Z,97.40
2023-04-16T04:46:04.244Z,97.70
2023-04-16T04:48:33.407Z,97.69
2023-04-16T04:51:02.987Z,97.64
2023-04-16T04:53:32.942Z,97.62
2023-04-16T04:56:09.157Z,97.62
2023-04-16T04:58:40.105Z,97.59
2023-04-16T05:01:09.784Z,97.59
2023-04-16T05:03:38.356Z,97.55
2023-04-16T05:06:06.915Z,97.63
2023-04-16T05:08:37.977Z,97.63
2023-04-16T05:11:06.458Z,97.73
2023-04-16T05:13:34.724Z,97.77
2023-04-16T05:16:02.860Z,97.59
2023-04-16T05:18:36.289Z,97.73
2023-04-16T05:21:04.587Z,97.79
2023-04-16T05:23:32.719Z,97.86
2023-04-16T05:26:00.777Z,97.84
2023-04-16T05:28:28.864Z,97.71
2023-04-16T05:30:56.978Z,97.76
2023-04-16T05:33:25.257Z,97.63
2023-04-16T05:35:54.863Z,97.82
2023-04-16T05:38:23.001Z,97.91
2023-04-16T05:40:50.998Z,97.91
2023-04-16T05:43:19.016Z,97.84
2023-04-16T05:45:47.059Z,97.73
2023-04-16T05:48:15.232Z,97.63
2023-04-16T05:50:44.497Z,97.63
2023-04-16T05:53:14.554Z,97.54
2023-04-16T05:55:42.858Z,97.55
2023-04-16T05:58:10.978Z,97.68
2023-04-16T06:00:39.092Z,97.54
2023-04-16T06:03:07.458Z,97.62
2023-04-16T06:05:35.920Z,97.66
2023-04-16T06:08:03.935Z,97.54
2023-04-16T06:10:33.673Z,97.45
2023-04-16T06:13:01.838Z,97.52
2023-04-16T06:15:30.341Z,97.47
2023-04-16T06:18:00.698Z,97.37
2023-04-16T06:20:29.228Z,97.25
2023-04-16T06:22:57.614Z,97.31
2023-04-16T06:25:25.798Z,97.36
2023-04-16T06:27:55.551Z,97.28
2023-04-16T06:30:23.636Z,97.28
2023-04-16T06:32:51.861Z,97.29
2023-04-16T06:35:20.798Z,97.38
2023-04-16T06:37:48.824Z,97.29
2023-04-16T06:40:17.061Z,97.31
2023-04-16T06:42:45.723Z,97.22
2023-04-16T06:45:15.535Z,97.19
2023-04-16T06:47:43.654Z,97.11
2023-04-16T06:50:12.338Z,96.95
2023-04-16T06:52:40.549Z,96.92
2023-04-16T06:55:10.198Z,97.00
2023-04-16T06:57:40.876Z,97.05
2023-04-16T07:00:10.268Z,97.14
2023-04-16T07:02:40.525Z,97.16
2023-04-16T07:05:09.164Z,97.12
2023-04-16T07:07:37.228Z,97.17
2023-04-16T07:10:05.915Z,97.14
2023-04-16T07:12:34.139Z,97.25
2023-04-16T07:15:02.639Z,97.11
2023-04-16T07:17:30.775Z,97.09
2023-04-16T07:20:00.665Z,97.02
2023-04-16T07:22:28.759Z,97.18
2023-04-16T07:24:57.214Z,97.15
2023-04-16T07:27:25.432Z,97.07
2023-04-16T07:29:54.920Z,96.95
2023-04-16T07:32:23.919Z,97.01
2023-04-16T07:34:52.190Z,96.89
2023-04-16T07:37:22.031Z,97.03
2023-04-16T07:39:51.997Z,97.10
2023-04-16T07:42:20.124Z,97.12
2023-04-16T07:44:48.281Z,96.96
2023-04-16T07:47:16.401Z,96.93
2023-04-16T07:49:44.529Z,97.10
2023-04-16T07:52:13.052Z,96.94
2023-04-16T07:54:42.620Z,96.91
2023-04-16T07:57:11.687Z,96.86
2023-04-16T07:59:39.948Z,96.91
2023-04-16T08:02:09.051Z,96.72
2023-04-16T08:04:37.584Z,96.66
2023-04-16T08:07:05.831Z,96.66
2023-04-16T08:09:35.058Z,96.53
2023-04-16T08:12:05.200Z,96.46
2023-04-16T08:14:33.620Z,96.63
2023-04-16T08:17:01.820Z,96.68
2023-04-16T08:19:30.097Z,96.45
2023-04-16T08:21:58.355Z,96.60
2023-04-16T08:24:27.220Z,96.70
2023-04-16T08:26:58.404Z,96.48
2023-04-16T08:29:32.105Z,96.27
2023-04-16T08:32:00.668Z,96.27
2023-04-16T08:34:28.804Z,96.27
2023-04-16T08:36:56.949Z,96.18
2023-04-16T08:39:25.064Z,95.92
2023-04-16T08:41:58.203Z,96.11
2023-04-16T08:44:28.816Z,95.96
2023-04-16T08:46:59.291Z,96.06
2023-04-16T08:49:28.299Z,95.94
2023-04-16T08:51:57.772Z,96.01
2023-04-16T08:54:36.077Z,96.07
2023-04-16T08:57:07.898Z,96.14
2023-04-16T08:59:36.647Z,96.07
2023-04-16T09:02:07.700Z,95.96
2023-04-16T09:04:39.173Z,95.94
2023-04-16T09:07:09.563Z,95.81
2023-04-16T09:09:39.856Z,95.86
2023-04-16T09:12:09.908Z,95.91
2023-04-16T09:14:41.881Z,95.65
2023-04-16T09:17:14.229Z,95.44
2023-04-16T09:19:42.356Z,95.47
2023-04-16T09:22:10.542Z,95.37
2023-04-16T09:24:39.318Z,95.69
2023-04-16T09:27:08.856Z,95.78
2023-04-16T09:29:37.736Z,95.65
2023-04-16T09:32:07.589Z,95.34
2023-04-16T09:34:55.766Z,95.32
2023-04-16T09:37:23.939Z,95.14
2023-04-16T09:39:56.910Z,95.20
2023-04-16T09:42:27.458Z,94.95
2023-04-16T09:44:59.379Z,94.50
2023-04-16T09:47:41.190Z,94.01
2023-04-16T09:50:17.804Z,94.37
2023-04-16T09:52:49.746Z,94.08
2023-04-16T09:55:19.243Z,94.14
2023-04-16T09:57:49.341Z,94.06
2023-04-16T10:00:20.223Z,94.45
2023-04-16T10:02:50.653Z,94.40
2023-04-16T10:05:21.402Z,94.35
2023-04-16T10:07:50.179Z,94.57
2023-04-16T10:10:18.619Z,94.72
2023-04-16T10:12:46.773Z,94.92
2023-04-16T10:15:15.067Z,94.51
2023-04-16T10:17:45.101Z,94.38
2023-04-16T10:20:14.228Z,94.46
2023-04-16T10:22:45.290Z,94.45
2023-04-16T10:25:14.033Z,94.39
2023-04-16T10:27:42.619Z,94.38
2023-04-16T10:30:13.227Z,94.43
2023-04-16T10:32:42.968Z,93.90
2023-04-16T10:35:15.920Z,93.70
2023-04-16T10:37:45.711Z,93.44
2023-04-16T10:40:24.864Z,93.61
2023-04-16T10:42:59.734Z,93.50
2023-04-16T10:45:31.794Z,93.79
2023-04-16T10:48:00.355Z,93.98
2023-04-16T10:50:36.624Z,93.42
2023-04-16T10:53:30.082Z,93.11
2023-04-16T10:56:13.905Z,92.57
2023-04-16T10:58:42.774Z,92.08
2023-04-16T11:01:17.142Z,91.93
2023-04-16T11:03:48.548Z,91.06
2023-04-16T11:06:18.615Z,91.00
2023-04-16T11:08:54.659Z,90.72
2023-04-16T11:11:24.246Z,91.07
2023-04-16T11:13:57.268Z,91.36
2023-04-16T11:16:27.474Z,90.79
2023-04-16T11:18:57.241Z,90.96
2023-04-16T11:21:27.176Z,90.98
2023-04-16T11:23:59.643Z,91.23
2023-04-16T11:26:31.522Z,91.35
2023-04-16T11:29:00.319Z,91.61
2023-04-16T11:31:28.709Z,91.81
2023-04-16T11:33:58.022Z,91.13
2023-04-16T11:36:27.821Z,90.09
2023-04-16T11:39:04.743Z,87.69
2023-04-16T11:41:32.877Z,88.09
2023-04-16T11:44:01.484Z,88.09
2023-04-16T11:46:39.775Z,86.57
2023-04-16T11:49:08.115Z,86.12
2023-04-16T11:51:41.319Z,85.65
2023-04-16T11:54:12.301Z,85.69
2023-04-16T11:56:54.367Z,85.71
2023-04-16T11:59:24.023Z,84.80
2023-04-16T12:01:53.377Z,84.71
2023-04-16T12:04:22.500Z,84.74
2023-04-16T12:07:06.325Z,83.92
2023-04-16T12:09:39.526Z,83.03
2023-04-16T12:12:26.886Z,84.84
2023-04-16T12:14:57.051Z,85.94
2023-04-16T12:17:25.376Z,86.08
2023-04-16T12:19:56.866Z,85.78
2023-04-16T12:22:30.078Z,84.46
2023-04-16T12:25:04.437Z,82.84
2023-04-16T12:27:52.796Z,81.84
2023-04-16T12:30:22.559Z,81.16
2023-04-16T12:32:51.896Z,81.30
2023-04-16T12:35:31.168Z,81.27
2023-04-16T12:37:59.474Z,81.88
2023-04-16T12:40:28.848Z,81.86
2023-04-16T12:42:56.991Z,81.91
2023-04-16T12:45:27.325Z,82.09
2023-04-16T12:47:55.865Z,82.41
2023-04-16T12:50:24.160Z,82.88
2023-04-16T12:52:52.925Z,83.46
2023-04-16T12:55:22.432Z,83.22
2023-04-16T12:57:53.063Z,83.26
2023-04-16T13:00:21.622Z,83.17
2023-04-16T13:02:51.148Z,83.81
2023-04-16T13:05:19.780Z,84.07
2023-04-16T13:07:48.038Z,84.18
2023-04-16T13:10:16.956Z,84.08
2023-04-16T13:12:46.766Z,84.39
2023-04-16T13:15:16.320Z,84.86
2023-04-16T13:17:44.285Z,85.27
2023-04-16T13:20:12.434Z,84.57
2023-04-16T13:22:40.377Z,84.44
2023-04-16T13:25:09.476Z,84.63
2023-04-16T13:27:37.685Z,84.64
2023-04-16T13:30:05.978Z,84.99
2023-04-16T13:32:35.587Z,84.65
2023-04-16T13:35:03.593Z,85.02
2023-04-16T13:37:31.590Z,84.95
2023-04-16T13:39:59.462Z,84.69
2023-04-16T13:42:28.494Z,85.00
2023-04-16T13:44:58.269Z,85.37
2023-04-16T13:47:26.444Z,85.66
2023-04-16T13:49:55.876Z,85.95
2023-04-16T13:52:23.706Z,85.58
2023-04-16T13:54:51.691Z,85.21
2023-04-16T13:57:22.220Z,85.31
2023-04-16T13:59:50.275Z,85.03
2023-04-16T14:02:18.411Z,84.75
2023-04-16T14:04:48.835Z,84.51
2023-04-16T14:07:19.812Z,84.60
2023-04-16T14:09:47.792Z,84.28
2023-04-16T14:12:16.560Z,84.73
2023-04-16T14:14:44.461Z,84.44
2023-04-16T14:17:12.542Z,84.11
2023-04-16T14:19:40.627Z,84.37
2023-04-16T14:22:09.576Z,84.50
2023-04-16T14:24:40.091Z,83.74
2023-04-16T14:27:08.757Z,84.03
2023-04-16T14:29:38.426Z,84.25
2023-04-16T14:32:07.963Z,84.34
2023-04-16T14:34:36.441Z,84.46
2023-04-16T14:37:04.459Z,84.93
2023-04-16T14:39:32.730Z,84.78
2023-04-16T14:42:02.083Z,84.59
2023-04-16T14:44:30.029Z,84.67
2023-04-16T14:46:58.042Z,84.76
2023-04-16T14:49:26.734Z,85.24
2023-04-16T14:51:54.581Z,85.02
2023-04-16T14:54:22.624Z,84.87
2023-04-16T14:56:52.248Z,84.23
2023-04-16T14:59:22.120Z,84.16
2023-04-16T15:01:50.071Z,83.54
2023-04-16T15:04:18.384Z,83.10
2023-04-16T15:07:07.633Z,82.66
2023-04-16T15:09:35.768Z,82.67
2023-04-16T15:12:04.393Z,83.23
2023-04-16T15:14:33.845Z,83.17
2023-04-16T15:17:01.773Z,82.18
2023-04-16T15:19:29.850Z,81.71
2023-04-16T15:21:57.678Z,81.62
2023-04-16T15:24:26.118Z,81.22
2023-04-16T15:26:54.323Z,80.87
2023-04-16T15:29:22.582Z,81.17
2023-04-16T15:31:52.098Z,81.40
2023-04-16T15:34:20.181Z,81.35
2023-04-16T15:36:48.856Z,82.36
2023-04-16T15:39:17.340Z,83.40
2023-04-16T15:42:00.430Z,83.37
2023-04-16T15:44:38.740Z,82.66
2023-04-16T15:47:08.785Z,83.59
2023-04-16T15:49:37.111Z,83.46
2023-04-16T15:52:05.825Z,83.18
2023-04-16T15:54:34.140Z,83.58
2023-04-16T15:57:02.044Z,83.57
2023-04-16T15:59:30.687Z,83.93
2023-04-16T16:01:59.260Z,83.74
2023-04-16T16:04:28.708Z,83.49
2023-04-16T16:06:57.666Z,83.98
2023-04-16T16:09:27.066Z,84.24
2023-04-16T16:11:55.578Z,84.51
2023-04-16T16:14:23.623Z,84.83
2023-04-16T16:16:51.711Z,84.79
2023-04-16T16:19:19.882Z,84.88
2023-04-16T16:21:49.354Z,84.50
2023-04-16T16:24:17.311Z,84.44
2023-04-16T16:26:45.557Z,83.96
2023-04-16T16:29:13.513Z,83.42
2023-04-16T16:31:41.451Z,83.43
2023-04-16T16:34:14.763Z,83.35
2023-04-16T16:36:50.081Z,83.23
2023-04-16T16:39:18.162Z,83.71
2023-04-16T16:41:47.859Z,84.08
2023-04-16T16:44:15.867Z,84.28
2023-04-16T16:46:44.139Z,84.56
2023-04-16T16:49:12.349Z,84.80
2023-04-16T16:51:40.564Z,84.89
2023-04-16T16:54:09.709Z,85.07
2023-04-16T16:56:37.708Z,85.15
2023-04-16T16:59:06.205Z,85.28
2023-04-16T17:01:34.327Z,85.44
2023-04-16T17:04:02.665Z,85.76
2023-04-16T17:06:31.765Z,85.73
2023-04-16T17:08:59.774Z,85.57
2023-04-16T17:11:29.412Z,85.67
2023-04-16T17:13:57.286Z,85.82
2023-04-16T17:16:25.278Z,85.74
2023-04-16T17:18:53.304Z,85.93
2023-04-16T17:21:21.744Z,86.08
2023-04-16T17:23:49.868Z,86.02
2023-04-16T17:26:17.891Z,85.88
2023-04-16T17:28:47.225Z,86.13
2023-04-16T17:31:15.234Z,86.31
2023-04-16T17:33:43.579Z,86.27
2023-04-16T17:36:11.396Z,86.25
2023-04-16T17:38:39.448Z,86.47
2023-04-16T17:41:07.302Z,86.12
2023-04-16T17:43:35.289Z,86.19
2023-04-16T17:46:05.026Z,86.11
2023-04-16T17:48:33.060Z,86.16
2023-04-16T17:51:00.884Z,86.28
2023-04-16T17:53:28.795Z,86.40
2023-04-16T17:55:57.097Z,86.43
2023-04-16T17:58:26.478Z,86.43
2023-04-16T18:00:54.226Z,86.48
2023-04-16T18:03:23.554Z,86.31
2023-04-16T18:05:51.519Z,86.23
2023-04-16T18:08:19.890Z,86.14
2023-04-16T18:10:47.794Z,86.20
2023-04-16T18:13:15.718Z,86.39
2023-04-16T18:15:43.606Z,86.29
2023-04-16T18:18:11.512Z,86.43
2023-04-16T18:20:41.098Z,86.48
2023-04-16T18:23:08.968Z,86.78
2023-04-16T18:25:36.929Z,86.81
2023-04-16T18:28:06.466Z,87.17
2023-04-16T18:30:34.795Z,87.25
2023-04-16T18:35:34.164Z,87.38
2023-04-16T18:38:04.340Z,87.41
2023-04-16T18:40:34.698Z,87.29
2023-04-16T18:43:02.756Z,87.29
2023-04-16T18:45:30.927Z,87.09
2023-04-16T18:47:59.705Z,87.09
2023-04-16T18:50:27.631Z,87.18
2023-04-16T18:52:55.621Z,87.01
2023-04-16T18:55:25.002Z,87.06
2023-04-16T18:57:53.207Z,87.25
2023-04-16T19:00:21.232Z,87.24
2023-04-16T19:02:49.109Z,87.15
2023-04-16T19:05:17.134Z,87.23
2023-04-16T19:07:44.979Z,87.52
2023-04-16T19:10:12.958Z,87.53
2023-04-16T19:12:42.229Z,87.57
2023-04-16T19:15:10.326Z,87.70
2023-04-16T19:17:39.667Z,87.78
2023-04-16T19:20:11.371Z,87.81
2023-04-16T19:22:39.497Z,87.73
2023-04-16T19:25:07.813Z,87.84
2023-04-16T19:27:36.356Z,87.88
2023-04-16T19:30:06.770Z,88.11
2023-04-16T19:32:35.105Z,88.33
2023-04-16T19:35:03.265Z,88.31
2023-04-16T19:37:31.191Z,88.46
2023-04-16T19:39:59.823Z,88.63
2023-04-16T19:42:27.860Z,88.46
2023-04-16T19:44:55.770Z,88.23
2023-04-16T19:47:25.278Z,88.59
2023-04-16T19:49:53.292Z,88.54
2023-04-16T19:52:21.161Z,88.71
2023-04-16T19:54:49.057Z,88.98
2023-04-16T19:57:17.256Z,88.85
2023-04-16T19:59:45.208Z,89.14
2023-04-16T20:02:13.125Z,89.11
2023-04-16T20:04:46.754Z,89.17
2023-04-16T20:07:14.681Z,89.23
2023-04-16T20:09:42.643Z,89.41
2023-04-16T20:12:11.079Z,89.32
2023-04-16T20:14:39.566Z,89.40
2023-04-16T20:17:10.244Z,89.26
2023-04-16T20:19:39.424Z,89.48
2023-04-16T20:22:08.859Z,89.37
2023-04-16T20:24:38.605Z,89.49
2023-04-16T20:27:06.716Z,89.53
2023-04-16T20:29:34.702Z,89.58
2023-04-16T20:32:02.469Z,89.65
2023-04-16T20:34:30.357Z,89.69
2023-04-16T20:36:58.531Z,89.94
2023-04-16T20:39:28.070Z,89.80
2023-04-16T20:41:57.816Z,90.01
2023-04-16T20:44:33.080Z,89.86
2023-04-16T20:47:01.145Z,89.93
2023-04-16T20:49:37.732Z,89.78
2023-04-16T20:52:07.339Z,89.92
2023-04-16T20:54:36.860Z,90.06
2023-04-16T20:57:05.160Z,89.96
2023-04-16T20:59:59.656Z,89.99
2023-04-16T21:02:28.454Z,90.20
2023-04-16T21:04:56.714Z,90.32
2023-04-16T21:07:49.964Z,90.36
2023-04-16T21:10:20.502Z,90.44
2023-04-16T21:12:48.676Z,90.31
2023-04-16T21:15:16.697Z,90.40
2023-04-16T21:17:44.885Z,90.45
2023-04-16T21:20:14.135Z,90.11
2023-04-16T21:22:42.092Z,90.28
2023-04-16T21:25:10.561Z,90.43
2023-04-16T21:27:39.931Z,90.27
2023-04-16T21:30:08.580Z,90.44
2023-04-16T21:32:36.661Z,90.49
2023-04-16T21:35:05.015Z,90.51
2023-04-16T21:37:32.917Z,90.67
2023-04-16T21:40:00.896Z,90.52
2023-04-16T21:42:28.856Z,90.54
2023-04-16T21:44:58.553Z,90.51
2023-04-16T21:47:26.607Z,90.47
2023-04-16T21:49:54.575Z,90.27
2023-04-16T21:52:22.645Z,90.22
2023-04-16T21:54:51.025Z,90.10
2023-04-16T21:57:19.008Z,90.11
2023-04-16T21:59:47.088Z,90.09
2023-04-16T22:02:16.670Z,90.12
2023-04-16T22:04:44.577Z,90.22
2023-04-16T22:07:12.882Z,90.23
2023-04-16T22:09:41.608Z,90.28
2023-04-16T22:12:10.388Z,90.24
2023-04-16T22:14:42.139Z,90.30
2023-04-16T22:17:17.169Z,90.26
2023-04-16T22:19:46.574Z,90.39
2023-04-16T22:22:14.651Z,90.16
2023-04-16T22:24:43.321Z,90.33
2023-04-16T22:27:11.099Z,90.56
2023-04-16T22:29:38.899Z,90.65
2023-04-16T22:32:07.106Z,90.72
2023-04-16T22:34:35.136Z,90.78
2023-04-16T22:37:05.152Z,90.82
2023-04-16T22:39:33.049Z,90.57
2023-04-16T22:42:00.907Z,90.52
2023-04-16T22:44:28.798Z,90.59
2023-04-16T22:46:56.732Z,90.68
2023-04-16T22:49:24.642Z,90.73
2023-04-16T22:51:52.468Z,91.07
2023-04-16T22:54:21.911Z,91.00
2023-04-16T22:56:50.074Z,90.73
2023-04-16T22:59:18.057Z,90.81
2023-04-16T23:01:46.107Z,90.50
2023-04-16T23:04:14.193Z,90.68
2023-04-16T23:06:42.250Z,90.69
2023-04-16T23:09:10.567Z,90.40
2023-04-16T23:11:40.109Z,90.50
2023-04-16T23:14:08.387Z,90.58
2023-04-16T23:16:36.336Z,90.67
2023-04-16T23:19:05.037Z,90.72
2023-04-16T23:21:33.059Z,90.93
2023-04-16T23:24:00.887Z,90.48
2023-04-16T23:26:28.886Z,90.64
2023-04-16T23:28:58.335Z,90.73
2023-04-16T23:31:26.381Z,90.72
2023-04-16T23:33:54.353Z,91.05
2023-04-16T23:36:22.261Z,91.38
2023-04-16T23:38:50.427Z,91.85
2023-04-16T23:41:18.816Z,92.28
2023-04-16T23:43:46.861Z,92.56
2023-04-16T23:46:16.308Z,92.53
2023-04-16T23:48:44.594Z,92.91
2023-04-16T23:51:12.517Z,93.01
2023-04-16T23:53:40.886Z,93.24
2023-04-16T23:56:11.098Z,93.20
2023-04-16T23:58:39.157Z,92.96
